Time;durP1;ratioP1;P1;durP2;ratioP2;P2;SDS_P1;SDS_P2;PMS_P1;PMS_P2;Temp;Humidity;BMP_temperature;BMP_pressure;BME280_temperature;BME280_humidity;BME280_pressure;Samples;Min_cycle;Max_cycle;Signal;HPM_P1;HPM_P2
2020/12/06 00:01:43;;;;;;;27.87;12.00;;;5.50;99.90;;;;;;5057715;28;20175;-80
2020/12/06 00:04:10;;;;;;;20.93;12.60;;;5.50;99.90;;;;;;5059929;28;20436;-80
2020/12/06 00:06:37;;;;;;;24.92;11.52;;;5.50;99.90;;;;;;5062354;28;20415;-82
2020/12/06 00:09:07;;;;;;;23.45;13.68;;;5.50;99.90;;;;;;5047604;28;20200;-81
2020/12/06 00:11:32;;;;;;;20.63;12.98;;;5.40;99.90;;;;;;5062963;28;20333;-81
2020/12/06 00:14:01;;;;;;;20.33;12.90;;;5.20;99.90;;;;;;5064316;28;20165;-81
2020/12/06 00:16:30;;;;;;;25.50;12.75;;;5.20;99.90;;;;;;5065710;28;20215;-81
2020/12/06 00:18:56;;;;;;;23.55;13.35;;;5.20;99.90;;;;;;5049809;28;20172;-81
2020/12/06 00:21:22;;;;;;;21.50;12.00;;;5.20;99.90;;;;;;5046443;28;20267;-82
2020/12/06 00:23:49;;;;;;;18.77;10.38;;;5.10;99.90;;;;;;5027465;28;20180;-81
2020/12/06 00:26:23;;;;;;;27.77;15.07;;;5.10;99.90;;;;;;5061435;28;20188;-82
2020/12/06 00:28:50;;;;;;;18.35;11.90;;;5.00;99.90;;;;;;5064158;28;20167;-81
2020/12/06 00:31:16;;;;;;;25.95;14.07;;;5.10;99.90;;;;;;5064618;28;20211;-81
2020/12/06 00:33:43;;;;;;;24.90;13.07;;;5.00;99.90;;;;;;5063492;28;20180;-81
2020/12/06 00:36:10;;;;;;;20.30;12.25;;;4.90;99.90;;;;;;5065165;28;20423;-81
2020/12/06 00:38:39;;;;;;;26.48;15.02;;;4.90;99.90;;;;;;5062416;28;20172;-82
2020/12/06 00:41:09;;;;;;;18.85;12.93;;;4.80;99.90;;;;;;5062302;28;20184;-81
2020/12/06 00:43:34;;;;;;;22.88;13.52;;;4.90;99.90;;;;;;5047121;28;20248;-80
2020/12/06 00:46:01;;;;;;;25.03;13.90;;;4.90;99.90;;;;;;5062536;28;20223;-80
2020/12/06 00:48:27;;;;;;;28.20;13.80;;;5.00;99.90;;;;;;5045661;28;20173;-80
2020/12/06 00:50:53;;;;;;;21.73;14.40;;;4.90;99.90;;;;;;5045681;28;20571;-80
2020/12/06 00:53:18;;;;;;;26.17;12.90;;;5.10;99.90;;;;;;5030875;28;20402;-81
2020/12/06 00:55:46;;;;;;;28.60;16.17;;;5.10;99.90;;;;;;5030033;28;20196;-81
2020/12/06 00:58:12;;;;;;;30.05;15.32;;;5.00;99.90;;;;;;5066667;28;20181;-81
2020/12/06 01:00:37;;;;;;;21.40;14.20;;;4.80;99.90;;;;;;5062323;28;20184;-81
2020/12/06 01:03:06;;;;;;;22.00;13.80;;;4.80;99.90;;;;;;5064015;28;20236;-82
2020/12/06 01:05:31;;;;;;;27.38;14.52;;;4.80;99.90;;;;;;5063477;28;20212;-82
2020/12/06 01:07:57;;;;;;;25.37;15.20;;;4.80;99.90;;;;;;5062097;28;20173;-80
2020/12/06 01:10:25;;;;;;;25.73;15.60;;;4.90;99.90;;;;;;5046503;28;20287;-80
2020/12/06 01:12:58;;;;;;;25.60;14.93;;;4.70;99.90;;;;;;5065250;28;20173;-81
2020/12/06 01:15:23;;;;;;;26.80;15.20;;;4.90;99.90;;;;;;5065797;28;20254;-81
2020/12/06 01:17:49;;;;;;;25.97;15.80;;;5.00;99.90;;;;;;5052145;28;20177;-82
2020/12/06 01:20:15;;;;;;;31.67;18.27;;;5.10;99.90;;;;;;5051415;28;20190;-81
2020/12/06 01:22:43;;;;;;;27.73;16.77;;;5.30;99.90;;;;;;5064058;28;20176;-81
2020/12/06 01:25:09;;;;;;;22.70;12.90;;;5.20;99.90;;;;;;5066325;28;20727;-82
2020/12/06 01:27:35;;;;;;;24.70;15.27;;;5.20;99.90;;;;;;5071123;28;20259;-83
2020/12/06 01:30:00;;;;;;;26.67;15.10;;;5.20;99.90;;;;;;5070027;28;20266;-81
2020/12/06 01:32:26;;;;;;;26.50;13.77;;;5.30;99.90;;;;;;5064240;28;20267;-82
2020/12/06 01:34:52;;;;;;;29.23;17.20;;;5.40;99.90;;;;;;5065483;28;20434;-81
2020/12/06 01:37:17;;;;;;;25.87;15.70;;;5.30;99.90;;;;;;5063489;28;20183;-81
2020/12/06 01:39:43;;;;;;;22.83;14.17;;;5.40;99.90;;;;;;5050948;28;20192;-81
2020/12/06 01:42:09;;;;;;;23.90;14.93;;;5.30;99.90;;;;;;5047304;28;20223;-82
2020/12/06 01:44:34;;;;;;;29.87;15.60;;;5.20;99.90;;;;;;5063343;28;20196;-81
2020/12/06 01:47:04;;;;;;;23.30;13.27;;;5.30;99.90;;;;;;5047762;28;20181;-82
2020/12/06 01:49:39;;;;;;;29.80;15.07;;;5.20;99.90;;;;;;5063151;28;20204;-81
2020/12/06 01:52:07;;;;;;;24.63;14.93;;;5.20;99.90;;;;;;5031863;28;20689;-81
2020/12/06 01:54:36;;;;;;;34.63;16.85;;;5.30;99.90;;;;;;5061726;28;20188;-81
2020/12/06 01:57:05;;;;;;;32.17;17.08;;;5.40;99.90;;;;;;5061150;28;20176;-81
2020/12/06 01:59:31;;;;;;;29.35;14.40;;;5.40;99.90;;;;;;5062109;28;20671;-81
2020/12/06 02:02:02;;;;;;;30.87;15.90;;;5.30;99.90;;;;;;5061817;28;20227;-81
2020/12/06 02:04:29;;;;;;;25.45;14.70;;;5.20;99.90;;;;;;5062773;28;20765;-80
2020/12/06 02:06:56;;;;;;;27.08;16.08;;;5.40;99.90;;;;;;5061632;28;20173;-81
2020/12/06 02:09:23;;;;;;;27.05;14.75;;;5.50;99.90;;;;;;5044610;28;20622;-81
2020/12/06 02:11:49;;;;;;;30.67;17.00;;;5.50;99.90;;;;;;5060745;28;20750;-81
2020/12/06 02:14:15;;;;;;;28.75;15.45;;;5.40;99.90;;;;;;5060208;28;20218;-82
2020/12/06 02:16:42;;;;;;;28.50;17.38;;;5.40;99.90;;;;;;5061082;28;20176;-80
2020/12/06 02:19:09;;;;;;;25.80;14.70;;;5.50;99.90;;;;;;5061873;28;20172;-81
2020/12/06 02:21:39;;;;;;;32.80;15.40;;;5.50;99.90;;;;;;5060265;28;20173;-79
2020/12/06 02:24:06;;;;;;;27.75;15.35;;;5.30;99.90;;;;;;5060891;28;20169;-81
2020/12/06 02:26:41;;;;;;;28.70;17.10;;;5.40;99.90;;;;;;5060895;28;20176;-80
2020/12/06 02:29:07;;;;;;;29.13;14.73;;;5.40;99.90;;;;;;5044654;28;20176;-81
2020/12/06 02:31:32;;;;;;;22.93;14.50;;;5.30;99.90;;;;;;5062809;28;20212;-80
2020/12/06 02:34:01;;;;;;;28.23;14.13;;;5.40;99.90;;;;;;5062222;28;20409;-80
2020/12/06 02:36:30;;;;;;;33.45;16.20;;;5.40;99.90;;;;;;5060878;28;20203;-81
2020/12/06 02:38:59;;;;;;;30.95;15.82;;;5.40;99.90;;;;;;5061392;28;20200;-81
2020/12/06 02:41:55;;;;;;;25.25;15.15;;;5.60;99.90;;;;;;5061154;28;20235;-81
2020/12/06 02:44:21;;;;;;;27.48;15.07;;;5.60;99.90;;;;;;5064641;28;20189;-81
2020/12/06 02:46:49;;;;;;;28.50;14.40;;;5.60;99.90;;;;;;5061196;28;20176;-82
2020/12/06 02:49:15;;;;;;;26.58;14.95;;;5.70;99.90;;;;;;5044519;28;20181;-81
2020/12/06 02:51:40;;;;;;;24.30;13.37;;;5.70;99.90;;;;;;5060409;28;20168;-82
2020/12/06 02:54:06;;;;;;;21.33;13.73;;;5.60;99.90;;;;;;5060543;28;20717;-81
2020/12/06 02:56:32;;;;;;;23.77;14.53;;;5.70;99.90;;;;;;5061158;28;20396;-82
2020/12/06 02:59:01;;;;;;;23.98;14.05;;;5.70;99.90;;;;;;5057983;28;20663;-82
2020/12/06 03:01:30;;;;;;;27.25;14.45;;;5.60;99.90;;;;;;5060078;28;20168;-82
2020/12/06 03:03:57;;;;;;;24.75;13.10;;;5.70;99.90;;;;;;5059124;28;20648;-82
2020/12/06 03:06:23;;;;;;;27.23;14.95;;;5.70;99.90;;;;;;5061253;28;20766;-82
2020/12/06 03:08:48;;;;;;;21.67;12.07;;;5.70;99.90;;;;;;5059492;28;20238;-82
2020/12/06 03:11:14;;;;;;;26.80;13.33;;;5.60;99.90;;;;;;5059431;28;20698;-81
2020/12/06 03:13:40;;;;;;;25.00;13.23;;;5.80;99.90;;;;;;5041539;28;20532;-82
2020/12/06 03:16:06;;;;;;;23.30;13.60;;;5.70;99.90;;;;;;5060222;28;20188;-81
2020/12/06 03:18:32;;;;;;;22.67;11.60;;;5.80;99.90;;;;;;5058264;28;20219;-82
2020/12/06 03:20:58;;;;;;;21.83;12.48;;;5.80;99.90;;;;;;5058493;28;20980;-81
2020/12/06 03:23:24;;;;;;;23.88;11.70;;;5.80;99.90;;;;;;5059809;28;20173;-82
2020/12/06 03:25:49;;;;;;;25.90;12.17;;;5.70;99.90;;;;;;5060959;28;20218;-81
2020/12/06 03:28:15;;;;;;;27.37;13.60;;;5.80;99.90;;;;;;5059293;28;20434;-81
2020/12/06 03:30:44;;;;;;;20.40;12.30;;;5.70;99.90;;;;;;5059983;28;20228;-81
2020/12/06 03:33:10;;;;;;;22.85;10.98;;;5.70;99.90;;;;;;5042849;28;20382;-81
2020/12/06 03:35:36;;;;;;;21.55;11.55;;;5.80;99.90;;;;;;5060252;28;20207;-82
2020/12/06 03:38:01;;;;;;;14.70;9.97;;;5.70;99.90;;;;;;5059254;28;20181;-81
2020/12/06 03:40:27;;;;;;;24.73;10.93;;;5.90;99.90;;;;;;5073843;28;20179;-81
2020/12/06 03:42:53;;;;;;;15.90;11.30;;;5.90;99.90;;;;;;5040342;28;20473;-81
2020/12/06 03:45:19;;;;;;;20.45;10.73;;;5.90;99.90;;;;;;5056597;28;20204;-80
2020/12/06 03:47:46;;;;;;;21.20;12.40;;;6.10;99.90;;;;;;5063115;28;20172;-80
2020/12/06 03:50:11;;;;;;;19.63;10.60;;;6.10;99.90;;;;;;5058111;28;20201;-79
2020/12/06 03:52:37;;;;;;;20.30;10.73;;;6.10;99.90;;;;;;5057547;28;20223;-79
2020/12/06 03:55:03;;;;;;;16.60;10.57;;;6.10;99.90;;;;;;5058537;28;20435;-80
2020/12/06 03:57:29;;;;;;;21.50;10.43;;;6.10;99.90;;;;;;5039573;28;20450;-80
2020/12/06 03:59:55;;;;;;;20.03;12.40;;;6.10;99.90;;;;;;5040331;28;20209;-81
2020/12/06 04:02:23;;;;;;;22.10;12.20;;;6.20;99.90;;;;;;5055482;28;20291;-82
2020/12/06 04:04:52;;;;;;;27.23;9.93;;;6.20;99.90;;;;;;5056403;28;20204;-81
2020/12/06 04:07:17;;;;;;;16.92;10.25;;;6.20;99.90;;;;;;5056251;28;20183;-81
2020/12/06 04:09:44;;;;;;;17.07;11.07;;;6.20;99.90;;;;;;5039379;28;20295;-81
2020/12/06 04:12:10;;;;;;;16.42;9.65;;;6.20;99.90;;;;;;5054976;28;20341;-79
2020/12/06 04:14:35;;;;;;;17.77;9.97;;;6.20;99.90;;;;;;5071071;28;20684;-79
2020/12/06 04:17:03;;;;;;;19.17;11.80;;;6.20;99.90;;;;;;5056217;28;20185;-79
2020/12/06 04:19:29;;;;;;;22.67;10.93;;;6.20;99.90;;;;;;5050926;28;20181;-79
2020/12/06 04:21:55;;;;;;;15.30;9.13;;;6.20;99.90;;;;;;5068027;28;20188;-80
2020/12/06 04:24:21;;;;;;;20.33;12.02;;;6.20;99.90;;;;;;5069733;28;20176;-80
2020/12/06 04:26:46;;;;;;;21.70;11.47;;;6.20;99.90;;;;;;5059333;28;20226;-81
2020/12/06 04:29:12;;;;;;;21.03;10.40;;;6.20;99.90;;;;;;5061197;28;20173;-81
2020/12/06 04:31:38;;;;;;;16.17;10.17;;;6.20;99.90;;;;;;5058792;28;20639;-81
2020/12/06 04:34:03;;;;;;;15.27;10.27;;;6.30;99.90;;;;;;5042024;28;20180;-80
2020/12/06 04:36:29;;;;;;;18.87;11.53;;;6.10;99.90;;;;;;5059533;28;20691;-80
2020/12/06 04:38:55;;;;;;;21.07;11.10;;;6.20;99.90;;;;;;5059954;28;20311;-79
2020/12/06 04:41:25;;;;;;;23.13;12.70;;;6.20;99.90;;;;;;5063976;28;20173;-80
2020/12/06 04:43:51;;;;;;;17.83;10.30;;;6.10;99.90;;;;;;5064799;28;20207;-80
2020/12/06 04:46:18;;;;;;;16.90;10.20;;;6.20;99.90;;;;;;5065527;28;20188;-79
2020/12/06 04:49:21;;;;;;;23.10;12.05;;;6.20;99.90;;;;;;5066693;28;20172;-80
2020/12/06 04:51:53;;;;;;;17.33;9.40;;;6.20;99.90;;;;;;5072447;28;20234;-81
2020/12/06 04:54:20;;;;;;;18.45;10.45;;;6.20;99.90;;;;;;5088400;28;20149;-81
2020/12/06 04:56:50;;;;;;;19.00;11.55;;;6.20;99.90;;;;;;5072523;28;20255;-82
2020/12/06 04:59:19;;;;;;;16.00;10.93;;;6.20;99.90;;;;;;5054286;28;20189;-81
2020/12/06 05:01:48;;;;;;;16.13;9.65;;;6.10;99.90;;;;;;5072343;28;20172;-82
2020/12/06 05:04:15;;;;;;;19.70;10.60;;;6.10;99.90;;;;;;5085556;28;20169;-80
2020/12/06 05:06:43;;;;;;;21.50;11.48;;;6.20;99.90;;;;;;5070022;28;20169;-82
2020/12/06 05:09:13;;;;;;;19.75;11.77;;;6.20;99.90;;;;;;5070860;28;20176;-81
2020/12/06 05:11:40;;;;;;;15.85;9.85;;;6.30;99.90;;;;;;5071644;28;20283;-81
2020/12/06 05:14:06;;;;;;;19.88;11.40;;;6.20;99.90;;;;;;5070059;28;20168;-82
2020/12/06 05:16:36;;;;;;;22.83;11.05;;;6.30;99.90;;;;;;5071557;28;20184;-82
2020/12/06 05:19:06;;;;;;;21.10;11.05;;;6.20;99.90;;;;;;5071339;28;20180;-81
2020/12/06 05:21:40;;;;;;;20.52;10.60;;;6.20;99.90;;;;;;5071684;28;20164;-82
2020/12/06 05:24:06;;;;;;;20.63;11.32;;;6.30;99.90;;;;;;5071400;28;20173;-82
2020/12/06 05:26:32;;;;;;;23.70;12.07;;;6.30;99.90;;;;;;5071246;28;20176;-82
2020/12/06 05:29:00;;;;;;;22.08;12.35;;;6.40;99.90;;;;;;5053343;28;20184;-82
2020/12/06 05:31:26;;;;;;;20.88;10.93;;;6.40;99.90;;;;;;5072568;28;20196;-82
2020/12/06 05:33:52;;;;;;;26.40;13.03;;;6.40;99.90;;;;;;5069711;28;20169;-82
2020/12/06 05:36:19;;;;;;;16.98;10.45;;;6.40;99.90;;;;;;5067496;28;20427;-80
2020/12/06 05:38:44;;;;;;;18.08;10.52;;;6.20;99.90;;;;;;5046003;28;20173;-80
2020/12/06 05:41:10;;;;;;;19.17;11.07;;;6.30;99.90;;;;;;5062971;28;20172;-80
2020/12/06 05:43:37;;;;;;;19.20;11.32;;;6.30;99.90;;;;;;5063009;28;20419;-81
2020/12/06 05:46:11;;;;;;;18.17;11.80;;;6.20;99.90;;;;;;5042633;28;20198;-81
2020/12/06 05:48:37;;;;;;;21.65;11.00;;;6.40;99.90;;;;;;5060122;28;20177;-81
2020/12/06 05:51:04;;;;;;;21.08;11.70;;;6.40;99.90;;;;;;5057954;28;20208;-81
2020/12/06 05:53:31;;;;;;;22.80;12.25;;;6.30;99.90;;;;;;5058078;28;20188;-81
2020/12/06 05:56:18;;;;;;;24.13;12.35;;;6.40;99.90;;;;;;5064761;28;20670;-81
2020/12/06 05:58:48;;;;;;;20.13;10.63;;;6.30;99.90;;;;;;5057513;28;20189;-80
2020/12/06 06:01:15;;;;;;;18.13;10.88;;;6.30;99.90;;;;;;5040059;28;20219;-81
2020/12/06 06:03:46;;;;;;;17.60;10.43;;;6.40;99.90;;;;;;5057172;28;20246;-81
2020/12/06 06:06:35;;;;;;;21.15;12.13;;;6.40;99.90;;;;;;5041656;28;20231;-81
2020/12/06 06:09:01;;;;;;;19.08;12.13;;;6.40;99.90;;;;;;5061106;28;20814;-80
2020/12/06 06:11:29;;;;;;;22.05;10.45;;;6.30;99.90;;;;;;5041923;28;20219;-80
2020/12/06 06:14:06;;;;;;;21.00;11.07;;;6.50;99.90;;;;;;5059096;28;20168;-81
2020/12/06 06:16:33;;;;;;;23.95;13.55;;;6.40;99.90;;;;;;5057775;28;20540;-80
2020/12/06 06:19:01;;;;;;;24.13;11.90;;;6.30;99.90;;;;;;5059904;28;20168;-81
2020/12/06 06:21:26;;;;;;;15.60;10.30;;;6.40;99.90;;;;;;5042619;28;20197;-81
2020/12/06 06:23:53;;;;;;;20.87;10.97;;;6.40;99.90;;;;;;5059580;28;20195;-81
2020/12/06 06:26:22;;;;;;;20.98;9.63;;;6.40;99.90;;;;;;5058990;28;20201;-80
2020/12/06 06:28:51;;;;;;;24.63;12.48;;;6.40;99.90;;;;;;5061412;28;20656;-80
2020/12/06 06:31:19;;;;;;;19.42;10.18;;;6.50;99.90;;;;;;5059494;28;20263;-80
2020/12/06 06:33:47;;;;;;;19.13;11.30;;;6.50;99.90;;;;;;5060676;28;20164;-81
2020/12/06 06:36:12;;;;;;;24.25;11.07;;;6.50;99.90;;;;;;5059042;28;20223;-80
2020/12/06 06:38:44;;;;;;;20.60;10.60;;;6.50;99.90;;;;;;5060531;28;20173;-80
2020/12/06 06:41:11;;;;;;;19.83;11.80;;;6.50;99.90;;;;;;5043030;28;20250;-81
2020/12/06 06:43:38;;;;;;;18.52;10.25;;;6.70;99.90;;;;;;5061304;28;20216;-80
2020/12/06 06:46:13;;;;;;;14.00;9.23;;;6.60;99.90;;;;;;5060562;28;20741;-81
2020/12/06 06:48:39;;;;;;;22.17;12.32;;;6.70;99.90;;;;;;5058695;28;20169;-82
2020/12/06 06:51:05;;;;;;;18.35;10.00;;;6.60;99.90;;;;;;5059529;28;20529;-81
2020/12/06 06:53:31;;;;;;;14.27;9.43;;;6.60;99.90;;;;;;5058747;28;20238;-83
2020/12/06 06:56:00;;;;;;;20.30;11.73;;;6.60;99.90;;;;;;5061043;28;20192;-81
2020/12/06 06:58:31;;;;;;;19.75;9.93;;;6.70;99.90;;;;;;5059849;28;20169;-81
2020/12/06 07:01:18;;;;;;;16.45;10.05;;;6.60;99.90;;;;;;5063769;28;20269;-81
2020/12/06 07:03:48;;;;;;;22.17;11.60;;;6.60;99.90;;;;;;5057969;28;20177;-82
2020/12/06 07:06:52;;;;;;;15.65;9.30;;;6.80;99.90;;;;;;5059201;28;20188;-83
2020/12/06 07:09:22;;;;;;;18.13;10.45;;;6.80;99.90;;;;;;5081745;28;20173;-84
2020/12/06 07:11:48;;;;;;;21.40;11.20;;;6.80;99.90;;;;;;5059662;28;20173;-85
2020/12/06 07:14:14;;;;;;;18.98;10.70;;;6.80;99.90;;;;;;5059888;28;20218;-83
2020/12/06 07:16:40;;;;;;;18.17;9.30;;;6.80;99.90;;;;;;5060140;28;20569;-83
2020/12/06 07:19:05;;;;;;;19.87;11.00;;;6.90;99.90;;;;;;5041864;28;20421;-86
2020/12/06 07:21:33;;;;;;;19.03;10.80;;;6.90;99.90;;;;;;5023410;28;20181;-83
2020/12/06 07:24:00;;;;;;;19.17;9.98;;;7.00;99.90;;;;;;5018910;28;20170;-84
2020/12/06 07:26:26;;;;;;;14.68;8.57;;;6.90;99.90;;;;;;5018823;28;20202;-84
2020/12/06 07:28:56;;;;;;;15.20;9.15;;;7.00;99.90;;;;;;5035775;28;20249;-83
2020/12/06 07:31:23;;;;;;;16.05;9.45;;;7.00;99.90;;;;;;5032061;28;20292;-83
2020/12/06 07:33:49;;;;;;;13.85;9.23;;;7.00;99.90;;;;;;5036468;28;20224;-83
2020/12/06 07:36:15;;;;;;;15.03;8.67;;;6.90;99.90;;;;;;5037057;28;20197;-82
2020/12/06 07:38:41;;;;;;;15.65;9.10;;;6.90;99.90;;;;;;5035673;28;20366;-82
2020/12/06 07:41:06;;;;;;;16.60;7.77;;;7.00;99.90;;;;;;5034128;28;20185;-82
2020/12/06 07:43:32;;;;;;;16.90;9.00;;;7.20;99.90;;;;;;5003371;28;20353;-82
2020/12/06 07:46:20;;;;;;;19.08;10.52;;;7.40;99.90;;;;;;5035939;28;20268;-82
2020/12/06 07:48:46;;;;;;;17.98;10.50;;;7.40;99.90;;;;;;5035592;28;20645;-83
2020/12/06 07:51:12;;;;;;;17.48;9.32;;;7.40;99.90;;;;;;5033191;28;20208;-82
2020/12/06 07:53:51;;;;;;;16.43;9.83;;;7.70;99.90;;;;;;5035262;28;20256;-82
2020/12/06 07:56:22;;;;;;;13.77;9.77;;;7.40;99.90;;;;;;5035658;28;20431;-83
2020/12/06 07:58:59;;;;;;;19.35;10.75;;;7.90;99.90;;;;;;5037534;28;20189;-83
2020/12/06 08:01:26;;;;;;;16.60;8.50;;;8.00;99.90;;;;;;5037623;28;20183;-83
2020/12/06 08:03:57;;;;;;;14.27;9.48;;;7.90;99.90;;;;;;5042005;28;20192;-80
2020/12/06 08:06:28;;;;;;;15.00;9.88;;;7.70;99.90;;;;;;5038772;28;20224;-82
2020/12/06 08:08:57;;;;;;;17.70;9.93;;;7.90;99.90;;;;;;5037341;28;20179;-81
2020/12/06 08:11:29;;;;;;;18.17;9.70;;;7.90;99.90;;;;;;5037617;28;20201;-81
2020/12/06 08:13:56;;;;;;;16.42;9.40;;;8.00;99.90;;;;;;5038764;28;20153;-82
2020/12/06 08:16:21;;;;;;;13.80;9.55;;;8.00;99.90;;;;;;5036687;28;20204;-81
2020/12/06 08:18:57;;;;;;;15.10;9.27;;;7.90;99.90;;;;;;5019367;28;20174;-80
2020/12/06 08:21:23;;;;;;;14.27;8.82;;;7.90;99.90;;;;;;5019614;28;20632;-81
2020/12/06 08:23:48;;;;;;;13.33;8.23;;;7.90;99.90;;;;;;5037219;28;20213;-83
2020/12/06 08:26:14;;;;;;;16.80;8.37;;;7.90;99.90;;;;;;5036840;28;20668;-83
2020/12/06 08:28:40;;;;;;;14.83;9.47;;;7.80;99.90;;;;;;5035943;28;20185;-83
2020/12/06 08:31:23;;;;;;;15.40;8.63;;;7.70;99.90;;;;;;5034941;28;20282;-84
2020/12/06 08:33:49;;;;;;;17.80;9.13;;;7.80;99.90;;;;;;5035965;28;20181;-84
2020/12/06 08:36:25;;;;;;;15.43;9.30;;;7.80;99.90;;;;;;5003141;28;20762;-83
2020/12/06 08:38:50;;;;;;;20.42;9.02;;;7.90;99.90;;;;;;5037082;28;20235;-83
2020/12/06 08:41:24;;;;;;;13.80;8.50;;;7.90;99.90;;;;;;5036092;28;20205;-83
2020/12/06 08:43:51;;;;;;;16.55;8.68;;;7.90;99.90;;;;;;5036817;28;20173;-83
2020/12/06 08:46:22;;;;;;;13.20;8.23;;;7.90;99.90;;;;;;5037449;28;20339;-85
2020/12/06 08:48:50;;;;;;;14.73;8.25;;;7.90;99.90;;;;;;5038663;28;20162;-85
2020/12/06 08:51:38;;;;;;;13.90;8.57;;;8.00;99.90;;;;;;5040666;28;20204;-83
2020/12/06 08:54:08;;;;;;;16.40;7.43;;;8.00;99.90;;;;;;5038596;28;20170;-84
2020/12/06 08:56:38;;;;;;;12.80;8.93;;;8.10;99.90;;;;;;5037945;28;20175;-83
2020/12/06 08:59:12;;;;;;;11.32;8.70;;;8.00;99.90;;;;;;5038537;28;20177;-87
2020/12/06 09:01:52;;;;;;;14.75;8.93;;;8.00;99.90;;;;;;5039626;28;20176;-85
2020/12/06 09:04:19;;;;;;;20.38;9.02;;;8.00;99.90;;;;;;5040661;28;20208;-85
2020/12/06 09:06:46;;;;;;;16.13;9.57;;;8.10;99.90;;;;;;5042398;28;20180;-82
2020/12/06 09:09:11;;;;;;;18.08;9.10;;;8.10;99.90;;;;;;5040552;28;20173;-80
2020/12/06 09:11:37;;;;;;;13.70;9.47;;;8.10;99.90;;;;;;5035164;28;20220;-81
2020/12/06 09:14:03;;;;;;;16.03;7.73;;;8.10;99.90;;;;;;5037540;28;20348;-81
2020/12/06 09:16:29;;;;;;;14.10;8.23;;;8.10;99.90;;;;;;5037441;28;20904;-80
2020/12/06 09:18:55;;;;;;;17.60;9.10;;;8.20;99.90;;;;;;5042851;28;20416;-84
2020/12/06 09:21:22;;;;;;;12.57;8.10;;;8.20;99.90;;;;;;5044783;28;20329;-86
2020/12/06 09:23:48;;;;;;;19.30;9.82;;;8.20;99.90;;;;;;5039319;28;20327;-83
2020/12/06 09:26:14;;;;;;;14.97;9.30;;;8.30;99.90;;;;;;5040320;28;20201;-83
2020/12/06 09:28:40;;;;;;;12.50;8.30;;;8.30;99.90;;;;;;5041496;28;20166;-81
2020/12/06 09:31:06;;;;;;;12.43;8.73;;;8.40;99.90;;;;;;5036855;28;20519;-81
2020/12/06 09:33:31;;;;;;;12.83;8.43;;;8.40;99.90;;;;;;5037963;28;20427;-80
2020/12/06 09:35:57;;;;;;;15.57;9.70;;;8.30;99.90;;;;;;5038650;28;20587;-79
2020/12/06 09:38:23;;;;;;;14.30;7.77;;;8.40;99.90;;;;;;5025685;28;20180;-80
2020/12/06 09:40:49;;;;;;;12.05;7.38;;;8.50;99.90;;;;;;5041456;28;20431;-81
2020/12/06 09:43:15;;;;;;;17.33;9.87;;;8.50;99.90;;;;;;5041270;28;20169;-82
2020/12/06 09:45:42;;;;;;;18.02;10.23;;;8.60;99.90;;;;;;5041605;28;20474;-82
2020/12/06 09:48:09;;;;;;;13.30;8.15;;;8.60;99.90;;;;;;5041370;28;20260;-80
2020/12/06 09:50:34;;;;;;;15.38;9.38;;;8.80;99.90;;;;;;5040396;28;20208;-80
2020/12/06 09:53:00;;;;;;;15.33;7.73;;;8.80;99.90;;;;;;5041159;28;20169;-79
2020/12/06 09:55:26;;;;;;;16.83;9.57;;;8.80;99.90;;;;;;5043310;28;20193;-81
2020/12/06 09:57:51;;;;;;;11.93;7.97;;;8.90;99.90;;;;;;5043962;28;20173;-78
2020/12/06 10:00:17;;;;;;;12.37;8.87;;;8.90;99.90;;;;;;5041705;28;20196;-81
2020/12/06 10:02:43;;;;;;;15.30;9.20;;;8.90;99.90;;;;;;5042168;28;20237;-79
2020/12/06 10:05:10;;;;;;;13.20;7.90;;;9.00;99.90;;;;;;5045480;28;20444;-83
2020/12/06 10:07:36;;;;;;;11.30;7.60;;;9.00;99.90;;;;;;5024492;28;20253;-81
2020/12/06 10:10:03;;;;;;;17.33;9.07;;;9.10;99.90;;;;;;5043898;28;20216;-80
2020/12/06 10:12:29;;;;;;;11.57;8.00;;;9.00;99.90;;;;;;5045059;28;20481;-82
2020/12/06 10:14:55;;;;;;;13.63;8.13;;;9.20;99.90;;;;;;5043796;28;20591;-81
2020/12/06 10:17:20;;;;;;;12.10;7.47;;;9.30;99.90;;;;;;5025787;28;20174;-82
2020/12/06 10:19:46;;;;;;;12.80;8.43;;;9.40;99.90;;;;;;5043690;28;20222;-82
2020/12/06 10:22:12;;;;;;;15.90;9.00;;;9.40;99.90;;;;;;5043489;28;20183;-80
2020/12/06 10:24:37;;;;;;;11.37;7.37;;;9.50;99.90;;;;;;5042533;28;20221;-80
2020/12/06 10:27:03;;;;;;;11.47;7.30;;;9.40;99.90;;;;;;5042395;28;20213;-82
2020/12/06 10:29:29;;;;;;;12.33;8.20;;;9.60;99.90;;;;;;5042929;28;20264;-82
2020/12/06 10:31:56;;;;;;;14.93;8.13;;;9.60;99.90;;;;;;5024122;28;20185;-81
2020/12/06 10:34:23;;;;;;;19.52;9.48;;;9.70;99.90;;;;;;5035802;28;20456;-82
2020/12/06 10:36:54;;;;;;;14.90;8.15;;;9.70;99.90;;;;;;5040747;28;20184;-83
2020/12/06 10:39:23;;;;;;;11.00;6.82;;;9.70;99.90;;;;;;5043004;28;20180;-82
2020/12/06 10:41:54;;;;;;;19.08;8.10;;;9.80;99.90;;;;;;5042777;28;20169;-81
2020/12/06 10:44:21;;;;;;;18.27;8.38;;;9.80;99.90;;;;;;5043611;28;20162;-82
2020/12/06 10:46:47;;;;;;;15.13;8.70;;;9.90;99.90;;;;;;5045512;28;20174;-82
2020/12/06 10:49:15;;;;;;;14.37;7.60;;;9.90;99.90;;;;;;5040776;28;20174;-82
2020/12/06 10:51:42;;;;;;;17.35;8.57;;;10.00;99.90;;;;;;5041603;28;20248;-84
2020/12/06 10:54:08;;;;;;;13.18;9.20;;;9.90;99.90;;;;;;5033821;28;20180;-82
2020/12/06 10:56:35;;;;;;;11.70;7.90;;;10.00;99.90;;;;;;5051493;28;20169;-83
2020/12/06 10:59:01;;;;;;;14.55;8.13;;;10.00;99.90;;;;;;5048986;28;20185;-82
2020/12/06 11:01:31;;;;;;;13.13;7.40;;;10.10;99.90;;;;;;5034037;28;20613;-83
2020/12/06 11:03:57;;;;;;;13.05;7.60;;;10.10;99.90;;;;;;5035366;28;20157;-83
2020/12/06 11:06:24;;;;;;;9.82;6.95;;;10.20;99.90;;;;;;5035984;28;20201;-84
2020/12/06 11:08:50;;;;;;;13.85;7.43;;;10.20;99.90;;;;;;5048989;28;20170;-83
2020/12/06 11:11:17;;;;;;;12.45;8.13;;;10.20;99.90;;;;;;5050225;28;20734;-83
2020/12/06 11:13:44;;;;;;;15.95;7.97;;;10.20;99.90;;;;;;5050742;28;20193;-83
2020/12/06 11:16:10;;;;;;;13.75;7.93;;;10.30;99.90;;;;;;5049860;28;20280;-83
2020/12/06 11:18:36;;;;;;;10.60;7.18;;;10.30;99.90;;;;;;5041897;28;20198;-83
2020/12/06 11:21:02;;;;;;;13.33;7.10;;;10.40;99.90;;;;;;5041784;28;20212;-83
2020/12/06 11:23:28;;;;;;;16.17;8.27;;;10.40;99.90;;;;;;5025358;28;20416;-82
2020/12/06 11:25:54;;;;;;;13.27;6.50;;;10.40;99.90;;;;;;5041556;28;20201;-82
2020/12/06 11:28:20;;;;;;;9.80;6.83;;;10.50;99.90;;;;;;5042394;28;20255;-83
2020/12/06 11:30:46;;;;;;;12.80;7.70;;;10.50;99.90;;;;;;5039883;28;20448;-83
2020/12/06 11:33:12;;;;;;;10.67;7.00;;;10.60;99.90;;;;;;5039326;28;20530;-83
2020/12/06 11:35:38;;;;;;;11.63;8.30;;;10.60;99.90;;;;;;5043022;28;20201;-83
2020/12/06 11:38:03;;;;;;;12.87;7.37;;;10.60;99.90;;;;;;5025246;28;20412;-83
2020/12/06 11:40:32;;;;;;;9.20;6.93;;;10.70;99.90;;;;;;5026118;28;20185;-82
2020/12/06 11:42:58;;;;;;;11.85;7.95;;;10.60;99.90;;;;;;5042036;28;20447;-84
2020/12/06 11:45:24;;;;;;;14.10;8.43;;;10.70;99.90;;;;;;5041420;28;20197;-82
2020/12/06 11:47:49;;;;;;;13.47;7.33;;;10.60;99.90;;;;;;5039568;28;20180;-82
2020/12/06 11:50:18;;;;;;;10.27;6.50;;;10.60;99.90;;;;;;5005938;28;20197;-83
2020/12/06 11:52:44;;;;;;;19.95;9.27;;;10.60;99.90;;;;;;5042718;28;20193;-83
2020/12/06 11:55:11;;;;;;;12.98;8.38;;;10.60;99.90;;;;;;5044099;28;20607;-82
2020/12/06 11:57:37;;;;;;;10.98;7.63;;;10.60;99.90;;;;;;5041524;28;20200;-84
2020/12/06 12:00:05;;;;;;;11.90;8.18;;;10.70;99.90;;;;;;5039542;28;20266;-83
2020/12/06 12:02:31;;;;;;;12.32;8.50;;;10.60;99.90;;;;;;5023266;28;20178;-84
2020/12/06 12:04:57;;;;;;;11.20;6.33;;;10.70;99.90;;;;;;5039046;28;20591;-83
2020/12/06 12:07:23;;;;;;;15.03;7.93;;;10.80;99.90;;;;;;5040089;28;20177;-84
2020/12/06 12:09:48;;;;;;;12.97;7.40;;;10.80;99.90;;;;;;5040970;28;20201;-83
2020/12/06 12:12:14;;;;;;;11.53;7.43;;;10.80;99.90;;;;;;5022789;28;20423;-84
2020/12/06 12:14:40;;;;;;;16.13;7.97;;;10.80;99.90;;;;;;5021568;28;20696;-83
2020/12/06 12:17:05;;;;;;;12.33;7.57;;;10.90;99.90;;;;;;5037983;28;20174;-84
2020/12/06 12:19:31;;;;;;;12.70;7.77;;;10.80;99.90;;;;;;5028033;28;20715;-83
2020/12/06 12:21:57;;;;;;;15.53;7.17;;;10.80;99.90;;;;;;5040835;28;20188;-83
2020/12/06 12:24:22;;;;;;;15.00;8.10;;;10.80;99.90;;;;;;5041381;28;20166;-84
2020/12/06 12:26:48;;;;;;;11.67;7.30;;;10.80;99.90;;;;;;5044245;28;20631;-83
2020/12/06 12:29:14;;;;;;;12.20;6.23;;;10.90;99.90;;;;;;5029880;28;20248;-84
2020/12/06 12:31:44;;;;;;;10.90;6.80;;;10.90;99.90;;;;;;5046012;28;20204;-84
2020/12/06 12:34:10;;;;;;;14.77;7.50;;;10.80;99.90;;;;;;5044638;28;20158;-83
2020/12/06 12:36:39;;;;;;;14.40;8.33;;;10.70;99.90;;;;;;5043385;28;20174;-85
2020/12/06 12:39:05;;;;;;;9.60;6.53;;;10.80;99.90;;;;;;5042860;28;20173;-82
2020/12/06 12:41:34;;;;;;;11.43;6.97;;;10.80;99.90;;;;;;5012011;28;20185;-83
2020/12/06 12:44:00;;;;;;;12.93;7.75;;;10.90;99.90;;;;;;5040181;28;20178;-83